createdAt,value
2022-11-24T00:01:23.022Z,81.77
2022-11-24T00:03:56.024Z,81.38
2022-11-24T00:06:24.960Z,80.85
2022-11-24T00:08:53.720Z,81.56
2022-11-24T00:11:24.061Z,81.37
2022-11-24T00:13:52.287Z,80.97
2022-11-24T00:16:23.888Z,81.81
2022-11-24T00:18:53.573Z,81.57
2022-11-24T00:21:22.255Z,81.44
2022-11-24T00:23:51.289Z,80.98
2022-11-24T00:26:20.887Z,81.10
2022-11-24T00:28:50.797Z,81.08
2022-11-24T00:31:21.924Z,81.12
2022-11-24T00:33:52.295Z,81.18
2022-11-24T00:36:22.359Z,81.71
2022-11-24T00:38:54.803Z,81.06
2022-11-24T00:41:23.742Z,81.56
2022-11-24T00:43:52.053Z,81.28
2022-11-24T00:46:22.010Z,81.26
2022-11-24T00:48:50.680Z,81.63
2022-11-24T00:51:20.233Z,81.70
2022-11-24T00:53:48.863Z,81.71
2022-11-24T00:56:17.195Z,81.77
2022-11-24T00:58:45.300Z,81.78
2022-11-24T01:01:15.187Z,82.28
2022-11-24T01:03:46.721Z,82.13
2022-11-24T01:06:16.608Z,81.88
2022-11-24T01:08:45.443Z,82.29
2022-11-24T01:11:15.759Z,82.14
2022-11-24T01:13:45.508Z,81.61
2022-11-24T01:16:19.642Z,81.71
2022-11-24T01:18:49.746Z,82.07
2022-11-24T01:21:18.496Z,81.42
2022-11-24T01:23:46.643Z,81.53
2022-11-24T01:26:16.657Z,81.65
2022-11-24T01:28:47.349Z,81.44
2022-11-24T01:31:17.126Z,81.68
2022-11-24T01:33:45.306Z,81.85
2022-11-24T01:36:14.987Z,81.49
2022-11-24T01:38:43.133Z,81.87
2022-11-24T01:41:14.396Z,82.23
2022-11-24T01:43:43.028Z,81.91
2022-11-24T01:46:19.222Z,82.03
2022-11-24T01:48:52.951Z,82.21
2022-11-24T01:51:23.689Z,82.43
2022-11-24T01:53:58.607Z,82.23
2022-11-24T01:56:28.747Z,82.10
2022-11-24T01:58:59.731Z,82.08
2022-11-24T02:01:29.367Z,82.52
2022-11-24T02:03:58.428Z,82.65
2022-11-24T02:06:30.422Z,82.06
2022-11-24T02:09:03.340Z,81.98
2022-11-24T02:11:36.200Z,82.27
2022-11-24T02:14:06.284Z,81.83
2022-11-24T02:16:36.778Z,81.82
2022-11-24T02:19:08.565Z,82.05
2022-11-24T02:21:38.017Z,81.50
2022-11-24T02:24:14.460Z,81.88
2022-11-24T02:26:47.239Z,81.55
2022-11-24T02:29:16.310Z,82.01
2022-11-24T02:31:48.751Z,81.26
2022-11-24T02:34:16.877Z,81.49
2022-11-24T02:36:45.132Z,82.09
2022-11-24T02:39:14.651Z,82.19
2022-11-24T02:41:47.832Z,82.10
2022-11-24T02:44:18.868Z,81.28
2022-11-24T02:46:46.986Z,81.41
2022-11-24T02:49:16.183Z,81.50
2022-11-24T02:51:44.315Z,81.61
2022-11-24T02:54:12.401Z,81.26
2022-11-24T02:56:40.584Z,80.74
2022-11-24T02:59:10.062Z,81.61
2022-11-24T03:01:38.184Z,81.08
2022-11-24T03:04:06.449Z,80.73
2022-11-24T03:06:34.606Z,80.87
2022-11-24T03:09:02.795Z,80.95
2022-11-24T03:11:30.978Z,81.04
2022-11-24T03:13:59.129Z,81.30
2022-11-24T03:16:28.649Z,81.19
2022-11-24T03:18:56.723Z,81.07
2022-11-24T03:21:24.826Z,80.84
2022-11-24T03:23:53.373Z,80.96
2022-11-24T03:26:23.234Z,80.74
2022-11-24T03:28:51.414Z,81.09
2022-11-24T03:31:19.720Z,80.56
2022-11-24T03:33:49.282Z,80.89
2022-11-24T03:36:17.852Z,80.65
2022-11-24T03:38:46.047Z,80.78
2022-11-24T03:41:14.466Z,81.19
2022-11-24T03:43:44.313Z,80.44
2022-11-24T03:46:12.870Z,80.43
2022-11-24T03:48:41.475Z,80.83
2022-11-24T03:51:11.968Z,80.73
2022-11-24T03:53:40.459Z,80.92
2022-11-24T03:56:08.750Z,80.71
2022-11-24T03:58:37.098Z,81.01
2022-11-24T04:01:05.268Z,80.87
2022-11-24T04:03:33.382Z,81.33
2022-11-24T04:06:01.917Z,80.79
2022-11-24T04:08:31.439Z,81.01
2022-11-24T04:10:59.546Z,80.70
2022-11-24T04:13:28.066Z,81.26
2022-11-24T04:15:59.170Z,80.67
2022-11-24T04:18:27.150Z,81.00
2022-11-24T04:20:55.104Z,81.09
2022-11-24T04:23:23.424Z,81.18
2022-11-24T04:25:52.726Z,81.69
2022-11-24T04:28:20.757Z,82.21
2022-11-24T04:30:48.671Z,81.78
2022-11-24T04:33:16.745Z,81.93
2022-11-24T04:35:44.706Z,82.06
2022-11-24T04:38:12.640Z,81.93
2022-11-24T04:40:40.627Z,82.44
2022-11-24T04:43:10.375Z,81.85
2022-11-24T04:45:38.551Z,82.18
2022-11-24T04:48:07.137Z,81.53
2022-11-24T04:50:35.134Z,81.33
2022-11-24T04:53:03.083Z,81.01
2022-11-24T04:55:31.079Z,81.47
2022-11-24T04:57:59.032Z,81.42
2022-11-24T05:00:28.335Z,81.04
2022-11-24T05:02:56.446Z,81.71
2022-11-24T05:05:24.410Z,81.52
2022-11-24T05:07:52.445Z,81.96
2022-11-24T05:10:38.683Z,82.36
2022-11-24T05:13:08.655Z,82.46
2022-11-24T05:15:39.809Z,82.27
2022-11-24T05:18:08.605Z,82.92
2022-11-24T05:20:36.807Z,83.12
2022-11-24T05:23:06.278Z,83.38
2022-11-24T05:25:34.683Z,83.15
2022-11-24T05:28:04.009Z,83.35
2022-11-24T05:30:32.982Z,84.36
2022-11-24T05:33:05.940Z,84.17
2022-11-24T05:35:34.299Z,84.55
2022-11-24T05:38:02.188Z,84.26
2022-11-24T05:40:30.431Z,83.92
2022-11-24T05:42:58.529Z,83.74
2022-11-24T05:45:26.438Z,84.27
2022-11-24T05:47:55.095Z,84.15
2022-11-24T05:50:24.416Z,83.91
2022-11-24T05:52:52.327Z,84.43
2022-11-24T05:55:20.614Z,84.39
2022-11-24T05:57:48.773Z,84.61
2022-11-24T06:00:19.991Z,85.31
2022-11-24T06:02:48.404Z,85.78
2022-11-24T06:05:16.672Z,85.25
2022-11-24T06:07:46.400Z,85.50
2022-11-24T06:10:15.106Z,85.30
2022-11-24T06:12:43.225Z,85.63
2022-11-24T06:15:12.241Z,85.07
2022-11-24T06:17:41.024Z,84.68
2022-11-24T06:20:10.318Z,85.10
2022-11-24T06:22:38.564Z,84.98
2022-11-24T06:25:09.423Z,84.43
2022-11-24T06:27:37.350Z,84.74
2022-11-24T06:30:06.511Z,84.84
2022-11-24T06:32:34.519Z,85.46
2022-11-24T06:35:05.176Z,85.11
2022-11-24T06:37:33.244Z,85.13
2022-11-24T06:40:01.190Z,85.29
2022-11-24T06:42:30.672Z,85.05
2022-11-24T06:44:58.674Z,84.59
2022-11-24T06:47:26.609Z,83.77
2022-11-24T06:49:54.706Z,83.77
2022-11-24T06:52:22.678Z,83.78
2022-11-24T06:54:50.678Z,83.36
2022-11-24T06:57:18.715Z,83.48
2022-11-24T06:59:48.059Z,83.45
2022-11-24T07:02:16.059Z,82.95
2022-11-24T07:04:43.987Z,83.60
2022-11-24T07:07:12.665Z,82.84
2022-11-24T07:09:40.714Z,82.46
2022-11-24T07:12:09.066Z,82.56
2022-11-24T07:14:37.337Z,83.04
2022-11-24T07:17:07.399Z,82.66
2022-11-24T07:19:35.355Z,82.35
2022-11-24T07:22:03.466Z,82.03
2022-11-24T07:24:31.580Z,81.52
2022-11-24T07:26:59.614Z,81.18
2022-11-24T07:29:27.549Z,81.56
2022-11-24T07:31:57.578Z,81.62
2022-11-24T07:34:28.980Z,81.88
2022-11-24T07:36:57.838Z,81.73
2022-11-24T07:39:25.944Z,81.20
2022-11-24T07:41:53.946Z,81.33
2022-11-24T07:44:21.971Z,81.47
2022-11-24T07:46:51.269Z,81.54
2022-11-24T07:49:19.306Z,81.74
2022-11-24T07:51:48.625Z,81.29
2022-11-24T07:54:16.659Z,81.00
2022-11-24T07:56:44.679Z,81.13
2022-11-24T07:59:12.595Z,80.77
2022-11-24T08:01:40.911Z,81.06
2022-11-24T08:04:09.094Z,80.13
2022-11-24T08:06:40.829Z,79.92
2022-11-24T08:09:12.608Z,79.14
2022-11-24T08:11:40.693Z,78.43
2022-11-24T08:14:11.763Z,79.16
2022-11-24T08:16:40.164Z,78.93
2022-11-24T08:19:08.416Z,78.42
2022-11-24T08:21:36.509Z,77.91
2022-11-24T08:24:04.950Z,77.64
2022-11-24T08:26:34.430Z,77.72
2022-11-24T08:29:02.500Z,77.73
2022-11-24T08:31:34.246Z,77.59
2022-11-24T08:34:03.725Z,77.98
2022-11-24T08:36:32.506Z,78.16
2022-11-24T08:39:01.909Z,78.07
2022-11-24T08:41:30.814Z,77.04
2022-11-24T08:44:00.172Z,76.38
2022-11-24T08:46:28.287Z,75.81
2022-11-24T08:48:56.716Z,75.25
2022-11-24T08:51:27.010Z,75.26
2022-11-24T08:53:56.763Z,74.80
2022-11-24T08:56:25.206Z,74.67
2022-11-24T08:59:01.104Z,74.40
2022-11-24T09:01:30.229Z,74.17
2022-11-24T09:03:58.625Z,73.09
2022-11-24T09:06:30.757Z,71.29
2022-11-24T09:08:59.761Z,71.75
2022-11-24T09:11:30.758Z,72.73
2022-11-24T09:14:00.105Z,67.77
2022-11-24T09:16:30.015Z,67.58
2022-11-24T09:18:59.870Z,67.78
2022-11-24T09:21:27.853Z,68.13
2022-11-24T09:23:57.089Z,61.27
2022-11-24T09:26:26.896Z,52.84
2022-11-24T09:28:55.941Z,55.96
2022-11-24T09:31:27.462Z,60.88
2022-11-24T09:33:56.036Z,64.87
2022-11-24T09:36:24.540Z,67.51
2022-11-24T09:38:52.740Z,68.14
2022-11-24T09:41:55.873Z,69.51
2022-11-24T09:45:02.026Z,68.97
2022-11-24T09:47:43.318Z,67.88
2022-11-24T09:50:15.931Z,67.86
2022-11-24T09:52:50.526Z,69.12
2022-11-24T09:55:35.833Z,69.23
2022-11-24T09:58:25.571Z,69.80
2022-11-24T10:00:55.662Z,68.01
2022-11-24T10:03:30.948Z,61.25
2022-11-24T10:06:01.750Z,52.71
2022-11-24T10:08:49.110Z,45.10
2022-11-24T10:11:29.467Z,51.31
2022-11-24T10:14:25.310Z,55.96
2022-11-24T10:16:58.550Z,47.03
2022-11-24T10:19:41.400Z,38.67
2022-11-24T10:22:26.063Z,36.22
2022-11-24T10:25:08.482Z,41.71
2022-11-24T10:27:41.127Z,44.15
2022-11-24T10:30:16.927Z,45.80
2022-11-24T10:32:48.158Z,43.83
2022-11-24T10:35:20.593Z,46.67
2022-11-24T10:37:57.528Z,49.46
2022-11-24T10:43:22.618Z,51.54
2022-11-24T10:45:51.617Z,52.20
2022-11-24T10:48:22.396Z,49.10
2022-11-24T10:50:55.265Z,47.83
2022-11-24T10:53:27.841Z,50.96
2022-11-24T10:56:01.827Z,51.91
2022-11-24T10:58:37.386Z,51.90
2022-11-24T11:01:22.395Z,52.93
2022-11-24T11:03:52.861Z,56.96
2022-11-24T11:06:25.577Z,59.21
2022-11-24T11:09:19.352Z,58.63
2022-11-24T11:11:48.712Z,57.55
2022-11-24T11:14:31.500Z,56.46
2022-11-24T11:17:00.092Z,55.95
2022-11-24T11:19:58.438Z,54.24
2022-11-24T11:22:29.658Z,57.06
2022-11-24T11:25:22.701Z,59.98
2022-11-24T11:27:51.125Z,60.09
2022-11-24T11:36:12.054Z,61.66
2022-11-24T11:38:44.181Z,62.17
2022-11-24T11:41:20.436Z,63.44
2022-11-24T11:43:57.996Z,63.02
2022-11-24T11:46:32.043Z,63.28
2022-11-24T11:49:00.211Z,63.38
2022-11-24T11:51:40.461Z,62.14
2022-11-24T11:54:20.029Z,62.60
2022-11-24T11:56:50.652Z,62.21
2022-11-24T11:59:49.840Z,61.75
2022-11-24T12:02:53.698Z,62.26
2022-11-24T12:05:30.942Z,61.86
2022-11-24T12:08:17.571Z,61.34
2022-11-24T12:11:02.203Z,61.36
2022-11-24T12:14:07.203Z,61.39
2022-11-24T12:16:46.472Z,61.23
2022-11-24T12:19:32.958Z,60.93
2022-11-24T12:22:08.942Z,61.57
2022-11-24T12:24:46.453Z,61.68
2022-11-24T12:27:27.385Z,62.37
2022-11-24T12:30:06.017Z,62.05
2022-11-24T12:32:54.919Z,61.76
2022-11-24T12:35:30.155Z,61.80
2022-11-24T12:38:06.548Z,61.46
2022-11-24T12:40:47.331Z,60.18
2022-11-24T12:43:22.384Z,60.35
2022-11-24T12:46:00.250Z,60.04
2022-11-24T12:48:44.155Z,59.77
2022-11-24T12:51:19.309Z,61.02
2022-11-24T12:53:49.535Z,60.30
2022-11-24T12:56:21.799Z,60.60
2022-11-24T12:58:57.203Z,62.08
2022-11-24T13:01:34.824Z,62.06
2022-11-24T13:04:14.045Z,62.83
2022-11-24T13:06:52.926Z,61.76
2022-11-24T13:09:21.503Z,62.51
2022-11-24T13:11:51.430Z,63.74
2022-11-24T13:14:23.753Z,63.40
2022-11-24T13:17:27.964Z,63.70
2022-11-24T13:19:44.774Z,64.36
2022-11-24T13:22:19.541Z,64.30
2022-11-24T13:25:12.135Z,64.66
2022-11-24T13:27:43.289Z,64.31
2022-11-24T13:30:51.762Z,63.53
2022-11-24T13:33:40.523Z,64.88
2022-11-24T13:36:30.518Z,64.94
2022-11-24T13:38:59.790Z,65.21
2022-11-24T13:42:08.288Z,65.59
2022-11-24T13:44:53.285Z,65.54
2022-11-24T13:47:45.230Z,66.23
2022-11-24T13:50:26.288Z,66.56
2022-11-24T13:53:01.726Z,66.97
2022-11-24T13:55:34.903Z,66.91
2022-11-24T13:58:28.451Z,67.40
2022-11-24T14:01:15.569Z,67.95
2022-11-24T14:04:21.565Z,67.94
2022-11-24T14:06:42.542Z,68.50
2022-11-24T14:09:24.112Z,67.94
2022-11-24T14:12:01.082Z,68.12
2022-11-24T14:14:29.615Z,68.45
2022-11-24T14:17:08.894Z,67.94
2022-11-24T14:19:36.827Z,67.88
2022-11-24T14:22:08.444Z,68.00
2022-11-24T14:24:41.213Z,67.91
2022-11-24T14:27:16.322Z,68.12
2022-11-24T14:29:55.803Z,68.33
2022-11-24T14:32:24.575Z,68.61
2022-11-24T14:34:54.041Z,68.08
2022-11-24T14:37:23.860Z,68.25
2022-11-24T14:39:52.082Z,68.89
2022-11-24T14:42:22.964Z,68.49
2022-11-24T14:44:55.565Z,68.87
2022-11-24T14:47:31.196Z,69.11
2022-11-24T14:50:12.665Z,68.94
2022-11-24T14:52:50.888Z,69.07
2022-11-24T14:55:27.997Z,68.81
2022-11-24T14:57:56.199Z,69.02
2022-11-24T15:00:29.255Z,69.54
2022-11-24T15:03:13.443Z,69.85
2022-11-24T15:06:00.573Z,70.57
2022-11-24T15:08:36.847Z,70.85
2022-11-24T15:11:07.781Z,71.34
2022-11-24T15:13:38.866Z,71.07
2022-11-24T15:16:15.470Z,70.83
2022-11-24T15:18:45.102Z,71.16
2022-11-24T15:21:18.866Z,70.68
2022-11-24T15:24:06.857Z,71.06
2022-11-24T15:26:40.242Z,71.35
2022-11-24T15:29:10.067Z,71.63
2022-11-24T15:31:38.331Z,71.59
2022-11-24T15:34:06.396Z,71.91
2022-11-24T15:36:34.408Z,71.27
2022-11-24T15:39:03.640Z,71.52
2022-11-24T15:41:33.286Z,72.00
2022-11-24T15:44:01.683Z,72.52
2022-11-24T15:46:37.682Z,72.53
2022-11-24T15:49:07.191Z,72.79
2022-11-24T15:51:36.984Z,73.76
2022-11-24T15:54:07.255Z,73.91
2022-11-24T15:56:36.662Z,73.94
2022-11-24T15:59:05.533Z,73.80
2022-11-24T16:01:35.217Z,73.82
2022-11-24T16:04:03.622Z,73.39
2022-11-24T16:06:33.413Z,73.20
2022-11-24T16:09:01.379Z,73.80
2022-11-24T16:11:30.866Z,73.75
2022-11-24T16:13:58.991Z,73.59
2022-11-24T16:16:29.615Z,73.21
2022-11-24T16:18:57.632Z,73.10
2022-11-24T16:21:25.686Z,73.33
2022-11-24T16:23:53.676Z,72.81
2022-11-24T16:26:21.675Z,73.63
2022-11-24T16:28:51.042Z,73.37
2022-11-24T16:31:19.785Z,73.60
2022-11-24T16:33:47.936Z,73.18
2022-11-24T16:36:16.312Z,73.30
2022-11-24T16:38:44.883Z,73.03
2022-11-24T16:41:13.159Z,73.18
2022-11-24T16:43:41.259Z,73.57
2022-11-24T16:46:21.459Z,73.39
2022-11-24T16:48:50.858Z,73.33
2022-11-24T16:51:20.535Z,73.71
2022-11-24T16:53:48.674Z,73.73
2022-11-24T16:56:17.437Z,73.79
2022-11-24T16:58:45.383Z,73.91
2022-11-24T17:01:14.648Z,73.78
2022-11-24T17:03:44.056Z,73.98
2022-11-24T17:06:15.709Z,73.52
2022-11-24T17:08:44.894Z,73.51
2022-11-24T17:11:15.375Z,73.60
2022-11-24T17:13:45.215Z,73.89
2022-11-24T17:16:15.046Z,73.50
2022-11-24T17:18:44.779Z,73.85
2022-11-24T17:21:14.930Z,73.89
2022-11-24T17:23:43.017Z,73.91
2022-11-24T17:26:13.398Z,73.79
2022-11-24T17:28:42.048Z,74.45
2022-11-24T17:31:11.332Z,74.63
2022-11-24T17:33:39.341Z,75.14
2022-11-24T17:36:09.736Z,74.98
2022-11-24T17:38:37.805Z,75.03
2022-11-24T17:41:06.082Z,75.83
2022-11-24T17:43:34.311Z,75.60
2022-11-24T17:46:04.073Z,75.87
2022-11-24T17:48:32.642Z,76.25
2022-11-24T17:51:01.684Z,76.28
2022-11-24T17:53:31.792Z,77.17
2022-11-24T17:56:00.750Z,76.80
2022-11-24T17:58:29.171Z,76.82
2022-11-24T18:00:58.172Z,77.33
2022-11-24T18:03:28.659Z,77.08
2022-11-24T18:05:56.826Z,77.53
2022-11-24T18:08:25.144Z,77.32
2022-11-24T18:10:54.482Z,77.31
2022-11-24T18:13:48.737Z,77.71
2022-11-24T18:16:12.593Z,78.13
2022-11-24T18:18:42.829Z,77.92
2022-11-24T18:21:14.575Z,78.44
2022-11-24T18:23:43.338Z,78.95
2022-11-24T18:26:14.984Z,79.01
2022-11-24T18:28:43.585Z,79.33
2022-11-24T18:31:13.834Z,79.28
2022-11-24T18:33:43.840Z,79.65
2022-11-24T18:36:14.680Z,79.90
2022-11-24T18:38:43.311Z,79.82
2022-11-24T18:41:14.315Z,80.45
2022-11-24T18:43:42.959Z,79.88
2022-11-24T18:46:13.141Z,80.68
2022-11-24T18:48:41.537Z,80.49
2022-11-24T18:51:16.361Z,80.55
2022-11-24T18:53:45.981Z,81.21
2022-11-24T18:56:17.337Z,81.52
2022-11-24T18:58:45.865Z,81.51
2022-11-24T19:01:24.717Z,80.95
2022-11-24T19:03:55.629Z,81.38
2022-11-24T19:06:28.581Z,81.81
2022-11-24T19:08:57.081Z,81.88
2022-11-24T19:11:28.202Z,82.26
2022-11-24T19:13:56.803Z,82.36
2022-11-24T19:16:25.542Z,81.91
2022-11-24T19:18:57.226Z,83.48
2022-11-24T19:21:25.252Z,83.52
2022-11-24T19:23:53.272Z,83.66
2022-11-24T19:26:21.310Z,83.67
2022-11-24T19:28:51.027Z,84.29
2022-11-24T19:31:20.315Z,83.59
2022-11-24T19:33:48.671Z,83.80
2022-11-24T19:36:18.503Z,84.19
2022-11-24T19:38:51.023Z,84.34
2022-11-24T19:41:20.654Z,84.53
2022-11-24T19:43:50.197Z,84.17
2022-11-24T19:46:19.534Z,84.58
2022-11-24T19:48:50.156Z,85.19
2022-11-24T19:51:21.501Z,84.82
2022-11-24T19:53:49.689Z,85.04
2022-11-24T19:56:20.074Z,84.80
2022-11-24T19:58:50.894Z,85.20
2022-11-24T20:01:21.454Z,85.08
2022-11-24T20:03:56.289Z,85.06
2022-11-24T20:06:24.316Z,85.36
2022-11-24T20:08:52.331Z,85.71
2022-11-24T20:11:22.019Z,85.44
2022-11-24T20:13:51.781Z,85.95
2022-11-24T20:16:26.126Z,86.04
2022-11-24T20:18:55.863Z,86.86
2022-11-24T20:21:25.979Z,87.00
2022-11-24T20:23:56.058Z,87.19
2022-11-24T20:26:26.376Z,86.84
2022-11-24T20:28:57.582Z,86.91
2022-11-24T20:31:28.052Z,87.17
2022-11-24T20:33:56.916Z,87.33
2022-11-24T20:36:27.505Z,87.12
2022-11-24T20:38:56.430Z,86.93
2022-11-24T20:41:26.471Z,86.94
2022-11-24T20:43:57.320Z,86.98
2022-11-24T20:46:27.539Z,87.08
2022-11-24T20:48:56.609Z,86.82
2022-11-24T20:51:26.370Z,88.55
2022-11-24T20:53:55.835Z,86.59
2022-11-24T20:56:25.860Z,87.84
2022-11-24T20:58:56.535Z,87.77
2022-11-24T21:01:26.792Z,88.13
2022-11-24T21:03:57.687Z,88.45
2022-11-24T21:06:27.906Z,88.71
2022-11-24T21:09:01.985Z,88.11
2022-11-24T21:11:31.914Z,87.46
2022-11-24T21:14:01.768Z,86.80
2022-11-24T21:16:32.165Z,87.63
2022-11-24T21:19:02.229Z,87.91
2022-11-24T21:21:34.118Z,88.12
2022-11-24T21:24:02.439Z,87.37
2022-11-24T21:26:30.845Z,87.59
2022-11-24T21:28:59.060Z,87.07
2022-11-24T21:31:28.378Z,87.36
2022-11-24T21:33:56.597Z,86.95
2022-11-24T21:36:26.261Z,87.54
2022-11-24T21:38:56.138Z,87.59
2022-11-24T21:41:25.685Z,87.84
2022-11-24T21:43:55.511Z,87.85
2022-11-24T21:46:24.443Z,87.82
2022-11-24T21:48:53.776Z,88.01
2022-11-24T21:51:22.236Z,87.57
2022-11-24T21:53:50.168Z,87.66
2022-11-24T21:56:19.982Z,88.40
2022-11-24T21:58:49.382Z,87.80
2022-11-24T22:01:19.248Z,88.21
2022-11-24T22:03:47.509Z,87.73
2022-11-24T22:06:17.679Z,88.13
2022-11-24T22:08:46.561Z,87.33
2022-11-24T22:11:16.392Z,87.27
2022-11-24T22:13:45.507Z,87.27
2022-11-24T22:16:15.805Z,87.41
2022-11-24T22:18:45.071Z,88.19
2022-11-24T22:21:15.192Z,88.20
2022-11-24T22:23:44.820Z,87.69
2022-11-24T22:26:15.617Z,87.55
2022-11-24T22:28:44.682Z,87.34
2022-11-24T22:31:14.488Z,88.94
2022-11-24T22:33:43.611Z,87.22
2022-11-24T22:36:12.722Z,87.31
2022-11-24T22:38:41.152Z,88.06
2022-11-24T22:41:12.250Z,88.78
2022-11-24T22:43:41.897Z,88.01
2022-11-24T22:46:12.469Z,88.67
2022-11-24T22:48:41.017Z,89.03
2022-11-24T22:51:11.317Z,87.84
2022-11-24T22:53:40.164Z,87.53
2022-11-24T22:56:11.852Z,87.26
2022-11-24T22:58:40.580Z,87.42
2022-11-24T23:01:11.267Z,86.81
2022-11-24T23:03:40.099Z,87.63
2022-11-24T23:06:14.834Z,87.33
2022-11-24T23:08:43.318Z,87.06
2022-11-24T23:11:14.863Z,87.08
2022-11-24T23:13:43.565Z,87.14
2022-11-24T23:16:13.800Z,87.31
2022-11-24T23:18:42.673Z,87.00
2022-11-24T23:21:14.661Z,86.52
2022-11-24T23:23:43.418Z,86.83
2022-11-24T23:26:14.574Z,87.08
2022-11-24T23:28:43.106Z,86.63
2022-11-24T23:31:13.996Z,86.99
2022-11-24T23:33:42.367Z,87.60
2022-11-24T23:36:12.214Z,87.35
2022-11-24T23:38:40.981Z,87.61
2022-11-24T23:41:12.021Z,87.67
2022-11-24T23:43:42.521Z,87.35
2022-11-24T23:46:12.269Z,87.55
2022-11-24T23:48:40.864Z,86.88
2022-11-24T23:51:11.311Z,87.43
2022-11-24T23:53:39.949Z,87.18
2022-11-24T23:56:09.026Z,87.04
2022-11-24T23:58:36.940Z,87.52
